sensor_id;sensor_type;location;lat;lon;timestamp;P1;durP1;ratioP1;P2;durP2;ratioP2
32407;SDS011;18869;55.970;37.502;2023-01-23T00:01:13;37.57;;;19.10;;
32407;SDS011;18869;55.970;37.502;2023-01-23T00:03:42;37.73;;;22.23;;
32407;SDS011;18869;55.970;37.502;2023-01-23T00:06:10;34.93;;;19.50;;
32407;SDS011;18869;55.970;37.502;2023-01-23T00:08:41;34.03;;;19.87;;
32407;SDS011;18869;55.970;37.502;2023-01-23T00:11:10;35.47;;;18.93;;
32407;SDS011;18869;55.970;37.502;2023-01-23T00:13:39;36.17;;;19.67;;
32407;SDS011;18869;55.970;37.502;2023-01-23T00:16:07;33.43;;;19.93;;
32407;SDS011;18869;55.970;37.502;2023-01-23T00:18:37;34.50;;;20.37;;
32407;SDS011;18869;55.970;37.502;2023-01-23T00:21:06;34.70;;;19.70;;
32407;SDS011;18869;55.970;37.502;2023-01-23T00:23:35;37.33;;;19.80;;
32407;SDS011;18869;55.970;37.502;2023-01-23T00:26:04;34.30;;;19.27;;
32407;SDS011;18869;55.970;37.502;2023-01-23T00:28:33;33.70;;;19.63;;
32407;SDS011;18869;55.970;37.502;2023-01-23T00:31:02;38.67;;;20.47;;
32407;SDS011;18869;55.970;37.502;2023-01-23T00:33:31;38.50;;;19.10;;
32407;SDS011;18869;55.970;37.502;2023-01-23T00:35:59;39.17;;;19.97;;
32407;SDS011;18869;55.970;37.502;2023-01-23T00:38:29;35.37;;;19.70;;
32407;SDS011;18869;55.970;37.502;2023-01-23T00:40:57;37.23;;;20.17;;
32407;SDS011;18869;55.970;37.502;2023-01-23T00:43:26;34.50;;;20.27;;
32407;SDS011;18869;55.970;37.502;2023-01-23T00:45:54;41.13;;;22.27;;
32407;SDS011;18869;55.970;37.502;2023-01-23T00:48:22;36.57;;;20.20;;
32407;SDS011;18869;55.970;37.502;2023-01-23T00:50:50;33.50;;;19.40;;
32407;SDS011;18869;55.970;37.502;2023-01-23T00:53:18;37.90;;;20.07;;
32407;SDS011;18869;55.970;37.502;2023-01-23T00:55:46;37.47;;;21.70;;
32407;SDS011;18869;55.970;37.502;2023-01-23T00:58:14;37.83;;;19.97;;
32407;SDS011;18869;55.970;37.502;2023-01-23T01:00:43;44.07;;;21.37;;
32407;SDS011;18869;55.970;37.502;2023-01-23T01:03:11;40.57;;;22.33;;
32407;SDS011;18869;55.970;37.502;2023-01-23T01:05:40;45.80;;;21.87;;
32407;SDS011;18869;55.970;37.502;2023-01-23T01:08:08;43.90;;;23.27;;
32407;SDS011;18869;55.970;37.502;2023-01-23T01:10:38;38.50;;;20.90;;
32407;SDS011;18869;55.970;37.502;2023-01-23T01:13:05;33.43;;;20.10;;
32407;SDS011;18869;55.970;37.502;2023-01-23T01:15:33;37.90;;;20.43;;
32407;SDS011;18869;55.970;37.502;2023-01-23T01:18:03;39.57;;;19.63;;
32407;SDS011;18869;55.970;37.502;2023-01-23T01:20:31;34.37;;;20.97;;
32407;SDS011;18869;55.970;37.502;2023-01-23T01:22:58;36.30;;;21.50;;
32407;SDS011;18869;55.970;37.502;2023-01-23T01:25:27;34.43;;;19.87;;
32407;SDS011;18869;55.970;37.502;2023-01-23T01:27:54;39.87;;;20.60;;
32407;SDS011;18869;55.970;37.502;2023-01-23T01:30:23;34.80;;;19.17;;
32407;SDS011;18869;55.970;37.502;2023-01-23T01:32:52;34.40;;;19.77;;
32407;SDS011;18869;55.970;37.502;2023-01-23T01:35:22;37.80;;;20.20;;
32407;SDS011;18869;55.970;37.502;2023-01-23T01:37:50;36.73;;;20.53;;
32407;SDS011;18869;55.970;37.502;2023-01-23T01:40:19;44.57;;;19.50;;
32407;SDS011;18869;55.970;37.502;2023-01-23T01:42:48;40.50;;;20.47;;
32407;SDS011;18869;55.970;37.502;2023-01-23T01:48:24;39.53;;;22.33;;
32407;SDS011;18869;55.970;37.502;2023-01-23T01:50:55;41.33;;;22.47;;
32407;SDS011;18869;55.970;37.502;2023-01-23T01:53:24;43.90;;;22.53;;
32407;SDS011;18869;55.970;37.502;2023-01-23T01:55:53;49.43;;;22.93;;
32407;SDS011;18869;55.970;37.502;2023-01-23T01:58:21;40.30;;;21.53;;
32407;SDS011;18869;55.970;37.502;2023-01-23T02:00:49;39.27;;;21.30;;
32407;SDS011;18869;55.970;37.502;2023-01-23T02:03:17;44.20;;;22.97;;
32407;SDS011;18869;55.970;37.502;2023-01-23T02:05:47;38.13;;;22.40;;
32407;SDS011;18869;55.970;37.502;2023-01-23T02:08:17;43.47;;;21.93;;
32407;SDS011;18869;55.970;37.502;2023-01-23T02:10:49;39.57;;;21.47;;
32407;SDS011;18869;55.970;37.502;2023-01-23T02:13:20;39.03;;;20.20;;
32407;SDS011;18869;55.970;37.502;2023-01-23T02:15:50;31.70;;;17.73;;
32407;SDS011;18869;55.970;37.502;2023-01-23T02:18:19;30.60;;;18.33;;
32407;SDS011;18869;55.970;37.502;2023-01-23T02:20:49;27.87;;;16.40;;
32407;SDS011;18869;55.970;37.502;2023-01-23T02:23:21;33.57;;;18.83;;
32407;SDS011;18869;55.970;37.502;2023-01-23T02:26:02;36.70;;;18.97;;
32407;SDS011;18869;55.970;37.502;2023-01-23T02:28:36;30.60;;;17.70;;
32407;SDS011;18869;55.970;37.502;2023-01-23T02:31:05;35.50;;;19.17;;
32407;SDS011;18869;55.970;37.502;2023-01-23T02:33:44;33.17;;;19.93;;
32407;SDS011;18869;55.970;37.502;2023-01-23T02:36:15;35.20;;;20.17;;
32407;SDS011;18869;55.970;37.502;2023-01-23T02:38:47;43.43;;;21.07;;
32407;SDS011;18869;55.970;37.502;2023-01-23T02:41:22;41.53;;;20.03;;
32407;SDS011;18869;55.970;37.502;2023-01-23T02:43:52;42.10;;;21.27;;
32407;SDS011;18869;55.970;37.502;2023-01-23T02:46:20;37.50;;;20.90;;
32407;SDS011;18869;55.970;37.502;2023-01-23T02:48:50;34.17;;;19.00;;
32407;SDS011;18869;55.970;37.502;2023-01-23T02:51:19;42.77;;;20.70;;
32407;SDS011;18869;55.970;37.502;2023-01-23T02:53:47;38.03;;;20.03;;
32407;SDS011;18869;55.970;37.502;2023-01-23T02:56:17;39.53;;;19.40;;
32407;SDS011;18869;55.970;37.502;2023-01-23T02:58:46;32.83;;;19.00;;
32407;SDS011;18869;55.970;37.502;2023-01-23T03:01:32;38.57;;;18.40;;
32407;SDS011;18869;55.970;37.502;2023-01-23T03:04:01;32.70;;;18.03;;
32407;SDS011;18869;55.970;37.502;2023-01-23T03:06:31;30.87;;;16.53;;
32407;SDS011;18869;55.970;37.502;2023-01-23T03:09:03;36.47;;;17.30;;
32407;SDS011;18869;55.970;37.502;2023-01-23T03:11:33;26.63;;;16.50;;
32407;SDS011;18869;55.970;37.502;2023-01-23T03:14:02;22.77;;;14.47;;
32407;SDS011;18869;55.970;37.502;2023-01-23T03:16:31;22.73;;;14.53;;
32407;SDS011;18869;55.970;37.502;2023-01-23T03:18:59;22.57;;;13.00;;
32407;SDS011;18869;55.970;37.502;2023-01-23T03:21:30;26.27;;;13.37;;
32407;SDS011;18869;55.970;37.502;2023-01-23T03:23:58;29.07;;;14.20;;
32407;SDS011;18869;55.970;37.502;2023-01-23T03:26:26;25.50;;;13.73;;
32407;SDS011;18869;55.970;37.502;2023-01-23T03:28:54;22.23;;;14.93;;
32407;SDS011;18869;55.970;37.502;2023-01-23T03:31:41;26.80;;;16.00;;
32407;SDS011;18869;55.970;37.502;2023-01-23T03:34:09;25.80;;;16.37;;
32407;SDS011;18869;55.970;37.502;2023-01-23T03:36:36;26.30;;;16.07;;
32407;SDS011;18869;55.970;37.502;2023-01-23T03:39:04;24.17;;;15.43;;
32407;SDS011;18869;55.970;37.502;2023-01-23T03:41:50;21.63;;;14.50;;
32407;SDS011;18869;55.970;37.502;2023-01-23T03:44:19;27.53;;;16.30;;
32407;SDS011;18869;55.970;37.502;2023-01-23T03:46:49;26.07;;;17.23;;
32407;SDS011;18869;55.970;37.502;2023-01-23T03:49:17;24.47;;;15.33;;
32407;SDS011;18869;55.970;37.502;2023-01-23T03:51:48;25.90;;;16.20;;
32407;SDS011;18869;55.970;37.502;2023-01-23T03:54:16;25.03;;;15.83;;
32407;SDS011;18869;55.970;37.502;2023-01-23T03:56:44;28.00;;;16.47;;
32407;SDS011;18869;55.970;37.502;2023-01-23T03:59:21;22.87;;;15.57;;
32407;SDS011;18869;55.970;37.502;2023-01-23T04:01:50;24.20;;;15.70;;
32407;SDS011;18869;55.970;37.502;2023-01-23T04:04:19;25.03;;;16.83;;
32407;SDS011;18869;55.970;37.502;2023-01-23T04:06:46;26.07;;;17.20;;
32407;SDS011;18869;55.970;37.502;2023-01-23T04:09:14;26.23;;;17.60;;
32407;SDS011;18869;55.970;37.502;2023-01-23T04:11:42;28.30;;;17.83;;
32407;SDS011;18869;55.970;37.502;2023-01-23T04:14:10;27.33;;;17.53;;
32407;SDS011;18869;55.970;37.502;2023-01-23T04:16:38;23.53;;;17.13;;
32407;SDS011;18869;55.970;37.502;2023-01-23T04:19:09;28.47;;;18.43;;
32407;SDS011;18869;55.970;37.502;2023-01-23T04:21:36;24.50;;;17.33;;
32407;SDS011;18869;55.970;37.502;2023-01-23T04:24:04;26.43;;;16.57;;
32407;SDS011;18869;55.970;37.502;2023-01-23T04:26:33;29.23;;;17.30;;
32407;SDS011;18869;55.970;37.502;2023-01-23T04:29:00;32.47;;;18.40;;
32407;SDS011;18869;55.970;37.502;2023-01-23T04:31:28;31.40;;;19.10;;
32407;SDS011;18869;55.970;37.502;2023-01-23T04:33:56;30.50;;;18.40;;
32407;SDS011;18869;55.970;37.502;2023-01-23T04:36:25;28.03;;;18.63;;
32407;SDS011;18869;55.970;37.502;2023-01-23T04:38:53;29.30;;;17.77;;
32407;SDS011;18869;55.970;37.502;2023-01-23T04:41:23;31.80;;;17.43;;
32407;SDS011;18869;55.970;37.502;2023-01-23T04:43:53;27.73;;;18.13;;
32407;SDS011;18869;55.970;37.502;2023-01-23T04:46:22;27.60;;;17.40;;
32407;SDS011;18869;55.970;37.502;2023-01-23T04:48:51;26.37;;;16.10;;
32407;SDS011;18869;55.970;37.502;2023-01-23T04:51:20;24.37;;;16.30;;
32407;SDS011;18869;55.970;37.502;2023-01-23T04:53:52;22.50;;;15.50;;
32407;SDS011;18869;55.970;37.502;2023-01-23T04:56:21;26.77;;;17.57;;
32407;SDS011;18869;55.970;37.502;2023-01-23T04:58:48;26.53;;;17.20;;
32407;SDS011;18869;55.970;37.502;2023-01-23T05:01:19;34.30;;;17.80;;
32407;SDS011;18869;55.970;37.502;2023-01-23T05:03:48;30.83;;;18.57;;
32407;SDS011;18869;55.970;37.502;2023-01-23T05:06:16;30.83;;;17.70;;
32407;SDS011;18869;55.970;37.502;2023-01-23T05:08:44;29.03;;;17.93;;
32407;SDS011;18869;55.970;37.502;2023-01-23T05:11:13;26.97;;;17.80;;
32407;SDS011;18869;55.970;37.502;2023-01-23T05:13:43;30.30;;;18.63;;
32407;SDS011;18869;55.970;37.502;2023-01-23T05:16:11;31.53;;;18.70;;
32407;SDS011;18869;55.970;37.502;2023-01-23T05:18:42;28.40;;;17.67;;
32407;SDS011;18869;55.970;37.502;2023-01-23T05:21:09;29.57;;;18.97;;
32407;SDS011;18869;55.970;37.502;2023-01-23T05:23:37;32.03;;;18.43;;
32407;SDS011;18869;55.970;37.502;2023-01-23T05:26:05;26.33;;;17.53;;
32407;SDS011;18869;55.970;37.502;2023-01-23T05:28:34;28.50;;;18.47;;
32407;SDS011;18869;55.970;37.502;2023-01-23T05:31:02;32.57;;;19.13;;
32407;SDS011;18869;55.970;37.502;2023-01-23T05:33:30;30.13;;;18.67;;
32407;SDS011;18869;55.970;37.502;2023-01-23T05:35:58;27.43;;;19.37;;
32407;SDS011;18869;55.970;37.502;2023-01-23T05:38:27;33.33;;;19.33;;
32407;SDS011;18869;55.970;37.502;2023-01-23T05:40:55;30.33;;;19.07;;
32407;SDS011;18869;55.970;37.502;2023-01-23T05:43:26;29.57;;;18.83;;
32407;SDS011;18869;55.970;37.502;2023-01-23T05:45:59;25.90;;;17.73;;
32407;SDS011;18869;55.970;37.502;2023-01-23T05:48:27;26.07;;;17.33;;
32407;SDS011;18869;55.970;37.502;2023-01-23T05:50:55;26.87;;;17.50;;
32407;SDS011;18869;55.970;37.502;2023-01-23T05:53:24;29.77;;;18.30;;
32407;SDS011;18869;55.970;37.502;2023-01-23T05:55:52;30.73;;;19.37;;
32407;SDS011;18869;55.970;37.502;2023-01-23T05:58:21;30.20;;;18.73;;
32407;SDS011;18869;55.970;37.502;2023-01-23T06:00:51;32.20;;;19.60;;
32407;SDS011;18869;55.970;37.502;2023-01-23T06:03:21;28.23;;;18.07;;
32407;SDS011;18869;55.970;37.502;2023-01-23T06:05:49;26.60;;;17.43;;
32407;SDS011;18869;55.970;37.502;2023-01-23T06:08:17;28.33;;;16.93;;
32407;SDS011;18869;55.970;37.502;2023-01-23T06:10:45;31.77;;;19.67;;
32407;SDS011;18869;55.970;37.502;2023-01-23T06:13:18;31.33;;;18.47;;
32407;SDS011;18869;55.970;37.502;2023-01-23T06:15:45;32.33;;;19.67;;
32407;SDS011;18869;55.970;37.502;2023-01-23T06:18:15;34.40;;;20.17;;
32407;SDS011;18869;55.970;37.502;2023-01-23T06:20:44;28.93;;;18.27;;
32407;SDS011;18869;55.970;37.502;2023-01-23T06:23:13;32.00;;;19.60;;
32407;SDS011;18869;55.970;37.502;2023-01-23T06:25:40;30.70;;;20.07;;
32407;SDS011;18869;55.970;37.502;2023-01-23T06:28:09;30.83;;;18.83;;
32407;SDS011;18869;55.970;37.502;2023-01-23T06:30:37;33.87;;;21.00;;
32407;SDS011;18869;55.970;37.502;2023-01-23T06:33:05;31.30;;;21.00;;
32407;SDS011;18869;55.970;37.502;2023-01-23T06:35:33;30.23;;;20.10;;
32407;SDS011;18869;55.970;37.502;2023-01-23T06:38:03;32.57;;;19.60;;
32407;SDS011;18869;55.970;37.502;2023-01-23T06:40:31;31.60;;;19.87;;
32407;SDS011;18869;55.970;37.502;2023-01-23T06:42:59;29.53;;;18.53;;
32407;SDS011;18869;55.970;37.502;2023-01-23T06:45:26;33.77;;;20.40;;
32407;SDS011;18869;55.970;37.502;2023-01-23T06:47:54;32.03;;;18.87;;
32407;SDS011;18869;55.970;37.502;2023-01-23T06:50:21;30.87;;;19.07;;
32407;SDS011;18869;55.970;37.502;2023-01-23T06:52:51;31.97;;;19.10;;
32407;SDS011;18869;55.970;37.502;2023-01-23T06:55:20;36.70;;;21.67;;
32407;SDS011;18869;55.970;37.502;2023-01-23T06:57:49;33.97;;;20.03;;
32407;SDS011;18869;55.970;37.502;2023-01-23T07:00:17;29.37;;;19.47;;
32407;SDS011;18869;55.970;37.502;2023-01-23T07:02:46;32.27;;;19.57;;
32407;SDS011;18869;55.970;37.502;2023-01-23T07:05:16;34.13;;;19.60;;
32407;SDS011;18869;55.970;37.502;2023-01-23T07:07:43;30.47;;;18.57;;
32407;SDS011;18869;55.970;37.502;2023-01-23T07:10:11;34.07;;;19.83;;
32407;SDS011;18869;55.970;37.502;2023-01-23T07:12:40;30.90;;;19.70;;
32407;SDS011;18869;55.970;37.502;2023-01-23T07:15:09;30.37;;;18.63;;
32407;SDS011;18869;55.970;37.502;2023-01-23T07:17:36;30.43;;;19.97;;
32407;SDS011;18869;55.970;37.502;2023-01-23T07:20:04;31.50;;;19.37;;
32407;SDS011;18869;55.970;37.502;2023-01-23T07:22:38;28.60;;;18.00;;
32407;SDS011;18869;55.970;37.502;2023-01-23T07:25:08;29.30;;;18.43;;
32407;SDS011;18869;55.970;37.502;2023-01-23T07:27:35;28.00;;;18.07;;
32407;SDS011;18869;55.970;37.502;2023-01-23T07:30:06;31.90;;;19.33;;
32407;SDS011;18869;55.970;37.502;2023-01-23T07:32:38;32.80;;;18.80;;
32407;SDS011;18869;55.970;37.502;2023-01-23T07:35:06;31.03;;;18.83;;
32407;SDS011;18869;55.970;37.502;2023-01-23T07:37:35;28.70;;;18.23;;
32407;SDS011;18869;55.970;37.502;2023-01-23T07:40:03;26.43;;;16.80;;
32407;SDS011;18869;55.970;37.502;2023-01-23T07:42:31;30.23;;;18.93;;
32407;SDS011;18869;55.970;37.502;2023-01-23T07:44:59;30.20;;;18.90;;
32407;SDS011;18869;55.970;37.502;2023-01-23T07:47:28;28.40;;;17.00;;
32407;SDS011;18869;55.970;37.502;2023-01-23T07:49:56;26.07;;;17.03;;
32407;SDS011;18869;55.970;37.502;2023-01-23T07:52:23;26.30;;;17.47;;
32407;SDS011;18869;55.970;37.502;2023-01-23T07:54:51;25.73;;;17.07;;
32407;SDS011;18869;55.970;37.502;2023-01-23T07:57:18;23.37;;;17.20;;
32407;SDS011;18869;55.970;37.502;2023-01-23T07:59:46;25.77;;;16.97;;
32407;SDS011;18869;55.970;37.502;2023-01-23T08:02:14;23.93;;;16.33;;
32407;SDS011;18869;55.970;37.502;2023-01-23T08:04:43;26.33;;;17.00;;
32407;SDS011;18869;55.970;37.502;2023-01-23T08:07:11;23.67;;;16.00;;
32407;SDS011;18869;55.970;37.502;2023-01-23T08:09:38;28.87;;;17.47;;
32407;SDS011;18869;55.970;37.502;2023-01-23T08:12:07;28.20;;;17.70;;
32407;SDS011;18869;55.970;37.502;2023-01-23T08:14:34;27.87;;;18.70;;
32407;SDS011;18869;55.970;37.502;2023-01-23T08:17:02;28.87;;;18.37;;
32407;SDS011;18869;55.970;37.502;2023-01-23T08:19:29;27.03;;;17.30;;
32407;SDS011;18869;55.970;37.502;2023-01-23T08:21:59;32.43;;;17.87;;
32407;SDS011;18869;55.970;37.502;2023-01-23T08:24:26;32.60;;;19.20;;
32407;SDS011;18869;55.970;37.502;2023-01-23T08:26:54;27.17;;;17.60;;
32407;SDS011;18869;55.970;37.502;2023-01-23T08:29:22;24.83;;;17.57;;
32407;SDS011;18869;55.970;37.502;2023-01-23T08:31:51;27.70;;;18.30;;
32407;SDS011;18869;55.970;37.502;2023-01-23T08:34:19;29.67;;;18.50;;
32407;SDS011;18869;55.970;37.502;2023-01-23T08:36:49;28.07;;;17.73;;
32407;SDS011;18869;55.970;37.502;2023-01-23T08:39:17;26.03;;;18.87;;
32407;SDS011;18869;55.970;37.502;2023-01-23T08:41:46;29.23;;;18.57;;
32407;SDS011;18869;55.970;37.502;2023-01-23T08:44:13;25.27;;;17.93;;
32407;SDS011;18869;55.970;37.502;2023-01-23T08:46:41;31.37;;;17.03;;
32407;SDS011;18869;55.970;37.502;2023-01-23T08:49:09;29.93;;;18.60;;
32407;SDS011;18869;55.970;37.502;2023-01-23T08:51:38;25.30;;;17.77;;
32407;SDS011;18869;55.970;37.502;2023-01-23T08:54:06;28.30;;;18.73;;
32407;SDS011;18869;55.970;37.502;2023-01-23T08:56:35;27.93;;;17.17;;
32407;SDS011;18869;55.970;37.502;2023-01-23T08:59:03;25.43;;;17.17;;
32407;SDS011;18869;55.970;37.502;2023-01-23T09:01:32;21.43;;;14.47;;
32407;SDS011;18869;55.970;37.502;2023-01-23T09:03:59;22.80;;;14.83;;
32407;SDS011;18869;55.970;37.502;2023-01-23T09:06:27;20.47;;;14.10;;
32407;SDS011;18869;55.970;37.502;2023-01-23T09:08:54;21.20;;;14.67;;
32407;SDS011;18869;55.970;37.502;2023-01-23T09:11:22;21.33;;;14.80;;
32407;SDS011;18869;55.970;37.502;2023-01-23T09:13:51;21.83;;;15.03;;
32407;SDS011;18869;55.970;37.502;2023-01-23T09:16:18;19.47;;;14.07;;
32407;SDS011;18869;55.970;37.502;2023-01-23T09:18:46;22.20;;;15.03;;
32407;SDS011;18869;55.970;37.502;2023-01-23T09:21:15;26.40;;;15.67;;
32407;SDS011;18869;55.970;37.502;2023-01-23T09:23:42;22.03;;;14.53;;
32407;SDS011;18869;55.970;37.502;2023-01-23T09:26:11;23.00;;;15.33;;
32407;SDS011;18869;55.970;37.502;2023-01-23T09:28:40;21.03;;;15.27;;
32407;SDS011;18869;55.970;37.502;2023-01-23T09:31:10;23.00;;;14.93;;
32407;SDS011;18869;55.970;37.502;2023-01-23T09:33:39;24.77;;;16.10;;
32407;SDS011;18869;55.970;37.502;2023-01-23T09:36:07;28.00;;;15.67;;
32407;SDS011;18869;55.970;37.502;2023-01-23T09:38:35;24.53;;;15.87;;
32407;SDS011;18869;55.970;37.502;2023-01-23T09:41:07;23.93;;;16.23;;
32407;SDS011;18869;55.970;37.502;2023-01-23T09:43:38;25.57;;;15.23;;
32407;SDS011;18869;55.970;37.502;2023-01-23T09:46:14;27.43;;;16.43;;
32407;SDS011;18869;55.970;37.502;2023-01-23T09:48:46;19.87;;;16.13;;
32407;SDS011;18869;55.970;37.502;2023-01-23T09:51:18;20.63;;;14.53;;
32407;SDS011;18869;55.970;37.502;2023-01-23T09:53:48;23.30;;;15.63;;
32407;SDS011;18869;55.970;37.502;2023-01-23T09:56:27;21.13;;;14.53;;
32407;SDS011;18869;55.970;37.502;2023-01-23T09:59:01;22.80;;;13.70;;
32407;SDS011;18869;55.970;37.502;2023-01-23T10:01:34;24.33;;;15.73;;
32407;SDS011;18869;55.970;37.502;2023-01-23T10:04:03;25.47;;;15.60;;
32407;SDS011;18869;55.970;37.502;2023-01-23T10:06:32;23.83;;;15.03;;
32407;SDS011;18869;55.970;37.502;2023-01-23T10:09:19;27.87;;;16.97;;
32407;SDS011;18869;55.970;37.502;2023-01-23T10:11:55;25.13;;;15.43;;
32407;SDS011;18869;55.970;37.502;2023-01-23T10:14:34;24.60;;;17.30;;
32407;SDS011;18869;55.970;37.502;2023-01-23T10:17:14;22.97;;;14.23;;
32407;SDS011;18869;55.970;37.502;2023-01-23T10:19:49;21.23;;;15.37;;
32407;SDS011;18869;55.970;37.502;2023-01-23T10:22:31;23.27;;;15.77;;
32407;SDS011;18869;55.970;37.502;2023-01-23T10:25:06;23.87;;;16.27;;
32407;SDS011;18869;55.970;37.502;2023-01-23T10:27:38;23.83;;;15.80;;
32407;SDS011;18869;55.970;37.502;2023-01-23T10:30:20;23.63;;;15.47;;
32407;SDS011;18869;55.970;37.502;2023-01-23T10:32:55;25.23;;;17.13;;
32407;SDS011;18869;55.970;37.502;2023-01-23T10:35:25;26.50;;;18.50;;
32407;SDS011;18869;55.970;37.502;2023-01-23T10:37:59;23.83;;;17.70;;
32407;SDS011;18869;55.970;37.502;2023-01-23T10:40:30;22.13;;;16.07;;
32407;SDS011;18869;55.970;37.502;2023-01-23T10:43:15;24.23;;;16.30;;
32407;SDS011;18869;55.970;37.502;2023-01-23T10:45:46;24.10;;;15.33;;
32407;SDS011;18869;55.970;37.502;2023-01-23T10:48:37;21.73;;;15.30;;
32407;SDS011;18869;55.970;37.502;2023-01-23T10:51:26;21.37;;;14.53;;
32407;SDS011;18869;55.970;37.502;2023-01-23T10:54:03;22.13;;;14.37;;
32407;SDS011;18869;55.970;37.502;2023-01-23T10:56:33;19.90;;;14.87;;
32407;SDS011;18869;55.970;37.502;2023-01-23T10:59:02;22.80;;;15.13;;
32407;SDS011;18869;55.970;37.502;2023-01-23T11:01:32;18.43;;;13.63;;
32407;SDS011;18869;55.970;37.502;2023-01-23T11:04:18;23.57;;;15.67;;
32407;SDS011;18869;55.970;37.502;2023-01-23T11:06:56;24.47;;;17.53;;
32407;SDS011;18869;55.970;37.502;2023-01-23T11:09:27;24.97;;;16.07;;
32407;SDS011;18869;55.970;37.502;2023-01-23T11:11:59;21.00;;;16.63;;
32407;SDS011;18869;55.970;37.502;2023-01-23T11:14:27;21.97;;;15.13;;
32407;SDS011;18869;55.970;37.502;2023-01-23T11:16:59;23.63;;;16.10;;
32407;SDS011;18869;55.970;37.502;2023-01-23T11:19:30;23.80;;;16.00;;
32407;SDS011;18869;55.970;37.502;2023-01-23T11:21:59;21.27;;;15.33;;
32407;SDS011;18869;55.970;37.502;2023-01-23T11:24:32;24.10;;;16.77;;
32407;SDS011;18869;55.970;37.502;2023-01-23T11:27:03;22.53;;;14.53;;
32407;SDS011;18869;55.970;37.502;2023-01-23T11:29:42;20.40;;;14.67;;
32407;SDS011;18869;55.970;37.502;2023-01-23T11:32:20;20.83;;;13.63;;
32407;SDS011;18869;55.970;37.502;2023-01-23T11:34:51;31.70;;;15.73;;
32407;SDS011;18869;55.970;37.502;2023-01-23T11:37:22;21.80;;;15.50;;
32407;SDS011;18869;55.970;37.502;2023-01-23T11:39:54;21.27;;;15.07;;
32407;SDS011;18869;55.970;37.502;2023-01-23T11:42:23;25.07;;;17.00;;
32407;SDS011;18869;55.970;37.502;2023-01-23T11:44:57;23.57;;;15.90;;
32407;SDS011;18869;55.970;37.502;2023-01-23T11:47:36;23.30;;;16.60;;
32407;SDS011;18869;55.970;37.502;2023-01-23T11:53:01;24.47;;;15.97;;
32407;SDS011;18869;55.970;37.502;2023-01-23T11:55:52;23.37;;;16.27;;
32407;SDS011;18869;55.970;37.502;2023-01-23T11:58:43;23.00;;;15.53;;
32407;SDS011;18869;55.970;37.502;2023-01-23T12:01:21;26.30;;;16.27;;
32407;SDS011;18869;55.970;37.502;2023-01-23T12:04:15;26.00;;;15.97;;
32407;SDS011;18869;55.970;37.502;2023-01-23T12:07:11;28.40;;;17.07;;
32407;SDS011;18869;55.970;37.502;2023-01-23T12:09:45;27.63;;;16.30;;
32407;SDS011;18869;55.970;37.502;2023-01-23T12:12:21;25.17;;;16.77;;
32407;SDS011;18869;55.970;37.502;2023-01-23T12:14:55;26.60;;;17.17;;
32407;SDS011;18869;55.970;37.502;2023-01-23T12:17:31;25.87;;;16.43;;
32407;SDS011;18869;55.970;37.502;2023-01-23T12:20:20;28.50;;;16.67;;
32407;SDS011;18869;55.970;37.502;2023-01-23T12:22:58;32.10;;;17.30;;
32407;SDS011;18869;55.970;37.502;2023-01-23T12:25:40;27.93;;;17.87;;
32407;SDS011;18869;55.970;37.502;2023-01-23T12:28:13;26.03;;;15.97;;
32407;SDS011;18869;55.970;37.502;2023-01-23T12:31:01;28.43;;;17.93;;
32407;SDS011;18869;55.970;37.502;2023-01-23T12:33:37;35.50;;;17.03;;
32407;SDS011;18869;55.970;37.502;2023-01-23T12:36:35;28.20;;;16.73;;
32407;SDS011;18869;55.970;37.502;2023-01-23T12:39:20;29.00;;;17.87;;
32407;SDS011;18869;55.970;37.502;2023-01-23T12:42:11;28.13;;;17.97;;
32407;SDS011;18869;55.970;37.502;2023-01-23T12:44:40;31.90;;;16.83;;
32407;SDS011;18869;55.970;37.502;2023-01-23T12:47:11;25.20;;;16.50;;
32407;SDS011;18869;55.970;37.502;2023-01-23T12:49:43;32.73;;;17.33;;
32407;SDS011;18869;55.970;37.502;2023-01-23T12:52:19;30.27;;;17.10;;
32407;SDS011;18869;55.970;37.502;2023-01-23T12:54:57;25.87;;;16.70;;
32407;SDS011;18869;55.970;37.502;2023-01-23T12:57:30;27.20;;;16.47;;
32407;SDS011;18869;55.970;37.502;2023-01-23T13:00:10;26.50;;;15.30;;
32407;SDS011;18869;55.970;37.502;2023-01-23T13:02:49;28.83;;;15.80;;
32407;SDS011;18869;55.970;37.502;2023-01-23T13:05:26;28.90;;;17.03;;
32407;SDS011;18869;55.970;37.502;2023-01-23T13:08:02;26.93;;;16.53;;
32407;SDS011;18869;55.970;37.502;2023-01-23T13:10:43;29.83;;;17.93;;
32407;SDS011;18869;55.970;37.502;2023-01-23T13:13:40;28.37;;;17.33;;
32407;SDS011;18869;55.970;37.502;2023-01-23T13:16:29;28.00;;;16.73;;
32407;SDS011;18869;55.970;37.502;2023-01-23T13:19:01;29.57;;;16.67;;
32407;SDS011;18869;55.970;37.502;2023-01-23T13:22:11;25.33;;;15.13;;
32407;SDS011;18869;55.970;37.502;2023-01-23T13:24:46;26.17;;;15.87;;
32407;SDS011;18869;55.970;37.502;2023-01-23T13:27:39;26.83;;;16.77;;
32407;SDS011;18869;55.970;37.502;2023-01-23T13:36:20;24.73;;;14.17;;
32407;SDS011;18869;55.970;37.502;2023-01-23T13:51:16;30.00;;;16.73;;
32407;SDS011;18869;55.970;37.502;2023-01-23T13:53:45;35.23;;;18.30;;
32407;SDS011;18869;55.970;37.502;2023-01-23T13:56:32;31.53;;;18.93;;
32407;SDS011;18869;55.970;37.502;2023-01-23T13:59:14;32.13;;;17.73;;
32407;SDS011;18869;55.970;37.502;2023-01-23T14:01:53;32.60;;;18.10;;
32407;SDS011;18869;55.970;37.502;2023-01-23T14:04:52;28.57;;;18.37;;
32407;SDS011;18869;55.970;37.502;2023-01-23T14:07:49;27.50;;;16.20;;
32407;SDS011;18869;55.970;37.502;2023-01-23T14:10:20;29.03;;;17.57;;
32407;SDS011;18869;55.970;37.502;2023-01-23T14:12:49;29.63;;;16.00;;
32407;SDS011;18869;55.970;37.502;2023-01-23T14:15:18;28.63;;;17.10;;
32407;SDS011;18869;55.970;37.502;2023-01-23T14:18:10;27.50;;;16.50;;
32407;SDS011;18869;55.970;37.502;2023-01-23T14:20:41;28.47;;;16.03;;
32407;SDS011;18869;55.970;37.502;2023-01-23T14:23:27;26.97;;;16.70;;
32407;SDS011;18869;55.970;37.502;2023-01-23T14:25:57;28.00;;;17.37;;
32407;SDS011;18869;55.970;37.502;2023-01-23T14:28:25;28.63;;;16.20;;
32407;SDS011;18869;55.970;37.502;2023-01-23T14:30:53;25.93;;;15.40;;
32407;SDS011;18869;55.970;37.502;2023-01-23T14:33:24;28.20;;;15.83;;
32407;SDS011;18869;55.970;37.502;2023-01-23T14:35:53;23.33;;;16.23;;
32407;SDS011;18869;55.970;37.502;2023-01-23T14:38:24;27.03;;;16.23;;
32407;SDS011;18869;55.970;37.502;2023-01-23T14:40:55;32.33;;;15.13;;
32407;SDS011;18869;55.970;37.502;2023-01-23T14:43:25;32.50;;;15.67;;
32407;SDS011;18869;55.970;37.502;2023-01-23T14:45:58;26.67;;;14.50;;
32407;SDS011;18869;55.970;37.502;2023-01-23T14:48:32;27.57;;;16.83;;
32407;SDS011;18869;55.970;37.502;2023-01-23T14:51:07;22.87;;;14.77;;
32407;SDS011;18869;55.970;37.502;2023-01-23T14:53:44;25.07;;;15.63;;
32407;SDS011;18869;55.970;37.502;2023-01-23T14:56:17;20.63;;;14.13;;
32407;SDS011;18869;55.970;37.502;2023-01-23T14:58:45;27.50;;;15.70;;